sensor_id;sensor_type;location;lat;lon;timestamp;temperature;humidity
3051;DHT22;1535;51.098;6.414;2023-03-24T00:02:02;12.10;99.90
3051;DHT22;1535;51.098;6.414;2023-03-24T00:04:30;12.10;99.90
3051;DHT22;1535;51.098;6.414;2023-03-24T00:06:58;12.10;99.90
3051;DHT22;1535;51.098;6.414;2023-03-24T00:09:28;12.10;99.90
3051;DHT22;1535;51.098;6.414;2023-03-24T00:11:55;12.10;99.90
3051;DHT22;1535;51.098;6.414;2023-03-24T00:14:22;12.20;99.90
3051;DHT22;1535;51.098;6.414;2023-03-24T00:16:49;12.20;99.90
3051;DHT22;1535;51.098;6.414;2023-03-24T00:19:17;12.20;99.90
3051;DHT22;1535;51.098;6.414;2023-03-24T00:21:45;12.20;99.90
3051;DHT22;1535;51.098;6.414;2023-03-24T00:24:12;12.20;99.90
3051;DHT22;1535;51.098;6.414;2023-03-24T00:26:40;12.20;99.90
3051;DHT22;1535;51.098;6.414;2023-03-24T00:29:09;12.20;99.90
3051;DHT22;1535;51.098;6.414;2023-03-24T00:31:37;12.20;99.90
3051;DHT22;1535;51.098;6.414;2023-03-24T00:34:05;12.20;99.90
3051;DHT22;1535;51.098;6.414;2023-03-24T00:36:33;12.20;99.90
3051;DHT22;1535;51.098;6.414;2023-03-24T00:39:03;12.30;99.90
3051;DHT22;1535;51.098;6.414;2023-03-24T00:41:30;12.30;99.90
3051;DHT22;1535;51.098;6.414;2023-03-24T00:43:58;12.30;99.90
3051;DHT22;1535;51.098;6.414;2023-03-24T00:46:28;12.30;99.90
3051;DHT22;1535;51.098;6.414;2023-03-24T00:48:58;12.40;99.90
3051;DHT22;1535;51.098;6.414;2023-03-24T00:51:29;12.40;99.90
3051;DHT22;1535;51.098;6.414;2023-03-24T00:53:57;12.40;99.90
3051;DHT22;1535;51.098;6.414;2023-03-24T00:56:27;12.40;99.90
3051;DHT22;1535;51.098;6.414;2023-03-24T00:58:56;12.40;99.90
3051;DHT22;1535;51.098;6.414;2023-03-24T01:01:24;12.40;99.90
3051;DHT22;1535;51.098;6.414;2023-03-24T01:03:52;12.30;99.90
3051;DHT22;1535;51.098;6.414;2023-03-24T01:06:19;12.30;99.90
3051;DHT22;1535;51.098;6.414;2023-03-24T01:08:49;12.30;99.90
3051;DHT22;1535;51.098;6.414;2023-03-24T01:11:20;12.20;99.90
3051;DHT22;1535;51.098;6.414;2023-03-24T01:13:51;12.30;99.90
3051;DHT22;1535;51.098;6.414;2023-03-24T01:16:19;12.30;99.90
3051;DHT22;1535;51.098;6.414;2023-03-24T01:18:50;12.30;99.90
3051;DHT22;1535;51.098;6.414;2023-03-24T01:21:17;12.30;99.90
3051;DHT22;1535;51.098;6.414;2023-03-24T01:23:44;12.30;99.90
3051;DHT22;1535;51.098;6.414;2023-03-24T01:26:11;12.30;99.90
3051;DHT22;1535;51.098;6.414;2023-03-24T01:28:38;12.30;99.90
3051;DHT22;1535;51.098;6.414;2023-03-24T01:31:10;12.40;99.90
3051;DHT22;1535;51.098;6.414;2023-03-24T01:33:37;12.40;99.90
3051;DHT22;1535;51.098;6.414;2023-03-24T01:36:06;12.40;99.90
3051;DHT22;1535;51.098;6.414;2023-03-24T01:38:34;12.40;99.90
3051;DHT22;1535;51.098;6.414;2023-03-24T01:41:03;12.40;99.90
3051;DHT22;1535;51.098;6.414;2023-03-24T01:43:32;12.50;99.90
3051;DHT22;1535;51.098;6.414;2023-03-24T01:46:12;12.50;99.90
3051;DHT22;1535;51.098;6.414;2023-03-24T01:48:43;12.50;99.90
3051;DHT22;1535;51.098;6.414;2023-03-24T01:51:15;12.50;99.90
3051;DHT22;1535;51.098;6.414;2023-03-24T01:53:47;12.50;99.90
3051;DHT22;1535;51.098;6.414;2023-03-24T01:56:15;12.50;99.90
3051;DHT22;1535;51.098;6.414;2023-03-24T01:58:47;12.50;99.90
3051;DHT22;1535;51.098;6.414;2023-03-24T02:01:17;12.60;99.90
3051;DHT22;1535;51.098;6.414;2023-03-24T02:03:44;12.60;99.90
3051;DHT22;1535;51.098;6.414;2023-03-24T02:06:12;12.60;99.90
3051;DHT22;1535;51.098;6.414;2023-03-24T02:08:43;12.60;99.90
3051;DHT22;1535;51.098;6.414;2023-03-24T02:11:13;12.60;99.90
3051;DHT22;1535;51.098;6.414;2023-03-24T02:13:40;12.60;99.90
3051;DHT22;1535;51.098;6.414;2023-03-24T02:16:18;12.60;99.90
3051;DHT22;1535;51.098;6.414;2023-03-24T02:18:59;12.70;99.90
3051;DHT22;1535;51.098;6.414;2023-03-24T02:21:56;12.70;99.90
3051;DHT22;1535;51.098;6.414;2023-03-24T02:24:53;12.70;99.90
3051;DHT22;1535;51.098;6.414;2023-03-24T02:30:58;12.70;99.90
3051;DHT22;1535;51.098;6.414;2023-03-24T02:40:06;12.90;99.90
3051;DHT22;1535;51.098;6.414;2023-03-24T02:42:43;13.00;99.90
3051;DHT22;1535;51.098;6.414;2023-03-24T02:45:22;13.10;99.90
3051;DHT22;1535;51.098;6.414;2023-03-24T02:47:59;13.10;99.90
3051;DHT22;1535;51.098;6.414;2023-03-24T02:50:31;13.20;99.90
3051;DHT22;1535;51.098;6.414;2023-03-24T02:53:07;13.30;99.90
3051;DHT22;1535;51.098;6.414;2023-03-24T02:55:41;13.30;99.90
3051;DHT22;1535;51.098;6.414;2023-03-24T02:58:14;13.40;99.90
3051;DHT22;1535;51.098;6.414;2023-03-24T03:00:45;13.50;99.90
3051;DHT22;1535;51.098;6.414;2023-03-24T03:03:16;13.50;99.90
3051;DHT22;1535;51.098;6.414;2023-03-24T03:05:50;13.60;99.90
3051;DHT22;1535;51.098;6.414;2023-03-24T03:08:20;13.60;99.90
3051;DHT22;1535;51.098;6.414;2023-03-24T03:10:50;13.60;99.90
3051;DHT22;1535;51.098;6.414;2023-03-24T03:13:22;13.70;99.90
3051;DHT22;1535;51.098;6.414;2023-03-24T03:15:53;13.70;99.90
3051;DHT22;1535;51.098;6.414;2023-03-24T03:18:23;13.70;99.90
3051;DHT22;1535;51.098;6.414;2023-03-24T03:20:57;13.80;99.90
3051;DHT22;1535;51.098;6.414;2023-03-24T03:23:31;13.70;99.90
3051;DHT22;1535;51.098;6.414;2023-03-24T03:26:05;13.80;99.90
3051;DHT22;1535;51.098;6.414;2023-03-24T03:28:36;13.80;99.90
3051;DHT22;1535;51.098;6.414;2023-03-24T03:31:07;13.90;99.90
3051;DHT22;1535;51.098;6.414;2023-03-24T03:33:42;13.90;99.90
3051;DHT22;1535;51.098;6.414;2023-03-24T03:36:15;13.80;99.90
3051;DHT22;1535;51.098;6.414;2023-03-24T03:38:46;13.80;99.90
3051;DHT22;1535;51.098;6.414;2023-03-24T03:41:17;13.80;99.90
3051;DHT22;1535;51.098;6.414;2023-03-24T03:43:44;13.70;99.90
3051;DHT22;1535;51.098;6.414;2023-03-24T03:46:13;13.50;99.90
3051;DHT22;1535;51.098;6.414;2023-03-24T03:48:40;13.40;99.90
3051;DHT22;1535;51.098;6.414;2023-03-24T03:51:07;13.40;99.90
3051;DHT22;1535;51.098;6.414;2023-03-24T03:53:39;13.40;99.90
3051;DHT22;1535;51.098;6.414;2023-03-24T03:56:07;13.40;99.90
3051;DHT22;1535;51.098;6.414;2023-03-24T03:58:36;13.40;99.90
3051;DHT22;1535;51.098;6.414;2023-03-24T04:01:06;13.30;99.90
3051;DHT22;1535;51.098;6.414;2023-03-24T04:03:49;13.20;99.90
3051;DHT22;1535;51.098;6.414;2023-03-24T04:06:22;13.00;99.90
3051;DHT22;1535;51.098;6.414;2023-03-24T04:09:04;12.70;99.90
3051;DHT22;1535;51.098;6.414;2023-03-24T04:11:42;12.60;99.90
3051;DHT22;1535;51.098;6.414;2023-03-24T04:14:22;12.50;99.90
3051;DHT22;1535;51.098;6.414;2023-03-24T04:17:01;12.40;99.90
3051;DHT22;1535;51.098;6.414;2023-03-24T04:19:39;12.30;99.90
3051;DHT22;1535;51.098;6.414;2023-03-24T04:22:22;12.20;99.90
3051;DHT22;1535;51.098;6.414;2023-03-24T04:24:53;12.10;99.90
3051;DHT22;1535;51.098;6.414;2023-03-24T04:27:26;12.10;99.90
3051;DHT22;1535;51.098;6.414;2023-03-24T04:30:07;12.00;99.90
3051;DHT22;1535;51.098;6.414;2023-03-24T04:32:42;12.00;99.90
3051;DHT22;1535;51.098;6.414;2023-03-24T04:35:18;12.00;99.90
3051;DHT22;1535;51.098;6.414;2023-03-24T04:37:51;12.00;99.90
3051;DHT22;1535;51.098;6.414;2023-03-24T04:40:19;12.00;99.90
3051;DHT22;1535;51.098;6.414;2023-03-24T04:42:49;12.00;99.90
3051;DHT22;1535;51.098;6.414;2023-03-24T04:45:19;12.00;99.90
3051;DHT22;1535;51.098;6.414;2023-03-24T04:47:53;12.00;99.90
3051;DHT22;1535;51.098;6.414;2023-03-24T04:50:27;12.00;99.90
3051;DHT22;1535;51.098;6.414;2023-03-24T04:52:56;11.90;99.90
3051;DHT22;1535;51.098;6.414;2023-03-24T04:55:39;12.00;99.90
3051;DHT22;1535;51.098;6.414;2023-03-24T04:58:10;12.00;99.90
3051;DHT22;1535;51.098;6.414;2023-03-24T05:00:38;12.00;99.90
3051;DHT22;1535;51.098;6.414;2023-03-24T05:03:06;12.00;99.90
3051;DHT22;1535;51.098;6.414;2023-03-24T05:05:33;11.70;99.90
3051;DHT22;1535;51.098;6.414;2023-03-24T05:08:01;11.50;99.90
3051;DHT22;1535;51.098;6.414;2023-03-24T05:10:28;11.30;99.90
3051;DHT22;1535;51.098;6.414;2023-03-24T05:12:55;11.00;99.90
3051;DHT22;1535;51.098;6.414;2023-03-24T05:15:22;10.90;99.90
3051;DHT22;1535;51.098;6.414;2023-03-24T05:17:50;10.70;99.90
3051;DHT22;1535;51.098;6.414;2023-03-24T05:20:17;10.60;99.90
3051;DHT22;1535;51.098;6.414;2023-03-24T05:22:44;10.40;99.90
3051;DHT22;1535;51.098;6.414;2023-03-24T05:25:11;10.30;99.90
3051;DHT22;1535;51.098;6.414;2023-03-24T05:27:38;10.20;99.90
3051;DHT22;1535;51.098;6.414;2023-03-24T05:30:06;10.10;99.90
3051;DHT22;1535;51.098;6.414;2023-03-24T05:32:33;10.00;99.90
3051;DHT22;1535;51.098;6.414;2023-03-24T05:35:02;10.00;99.90
3051;DHT22;1535;51.098;6.414;2023-03-24T05:37:29;9.90;99.90
3051;DHT22;1535;51.098;6.414;2023-03-24T05:39:56;9.80;99.90
3051;DHT22;1535;51.098;6.414;2023-03-24T05:42:23;9.80;99.90
3051;DHT22;1535;51.098;6.414;2023-03-24T05:44:50;9.80;99.90
3051;DHT22;1535;51.098;6.414;2023-03-24T05:47:17;9.70;99.90
3051;DHT22;1535;51.098;6.414;2023-03-24T05:49:44;9.70;99.90
3051;DHT22;1535;51.098;6.414;2023-03-24T05:52:13;9.70;99.90
3051;DHT22;1535;51.098;6.414;2023-03-24T05:54:41;9.70;99.90
3051;DHT22;1535;51.098;6.414;2023-03-24T05:57:11;9.80;99.90
3051;DHT22;1535;51.098;6.414;2023-03-24T05:59:38;9.80;99.90
3051;DHT22;1535;51.098;6.414;2023-03-24T06:02:06;9.80;99.90
3051;DHT22;1535;51.098;6.414;2023-03-24T06:04:33;9.80;99.90
3051;DHT22;1535;51.098;6.414;2023-03-24T06:07:01;9.90;99.90
3051;DHT22;1535;51.098;6.414;2023-03-24T06:09:30;9.90;99.90
3051;DHT22;1535;51.098;6.414;2023-03-24T06:12:01;9.90;99.90
3051;DHT22;1535;51.098;6.414;2023-03-24T06:14:27;9.90;99.90
3051;DHT22;1535;51.098;6.414;2023-03-24T06:16:55;9.90;99.90
3051;DHT22;1535;51.098;6.414;2023-03-24T06:19:24;10.00;99.90
3051;DHT22;1535;51.098;6.414;2023-03-24T06:21:55;10.00;99.90
3051;DHT22;1535;51.098;6.414;2023-03-24T06:24:25;10.00;99.90
3051;DHT22;1535;51.098;6.414;2023-03-24T06:26:53;10.00;99.90
3051;DHT22;1535;51.098;6.414;2023-03-24T06:29:24;10.10;99.90
3051;DHT22;1535;51.098;6.414;2023-03-24T06:31:51;10.10;99.90
3051;DHT22;1535;51.098;6.414;2023-03-24T06:34:18;10.00;99.90
3051;DHT22;1535;51.098;6.414;2023-03-24T06:36:46;10.00;99.90
3051;DHT22;1535;51.098;6.414;2023-03-24T06:39:13;9.90;99.90
3051;DHT22;1535;51.098;6.414;2023-03-24T06:41:40;9.90;99.90
3051;DHT22;1535;51.098;6.414;2023-03-24T06:44:09;9.90;99.90
3051;DHT22;1535;51.098;6.414;2023-03-24T06:46:36;9.90;99.90
3051;DHT22;1535;51.098;6.414;2023-03-24T06:49:03;9.90;99.90
3051;DHT22;1535;51.098;6.414;2023-03-24T06:51:31;9.80;99.90
3051;DHT22;1535;51.098;6.414;2023-03-24T06:53:58;9.90;99.90
3051;DHT22;1535;51.098;6.414;2023-03-24T06:56:25;9.90;99.90
3051;DHT22;1535;51.098;6.414;2023-03-24T06:58:52;9.90;99.90
3051;DHT22;1535;51.098;6.414;2023-03-24T07:01:21;9.90;99.90
3051;DHT22;1535;51.098;6.414;2023-03-24T07:03:49;9.90;99.90
3051;DHT22;1535;51.098;6.414;2023-03-24T07:06:16;9.90;99.90
3051;DHT22;1535;51.098;6.414;2023-03-24T07:08:43;9.90;99.90
3051;DHT22;1535;51.098;6.414;2023-03-24T07:11:10;9.90;99.90
3051;DHT22;1535;51.098;6.414;2023-03-24T07:13:37;10.00;99.90
3051;DHT22;1535;51.098;6.414;2023-03-24T07:16:05;10.00;99.90
3051;DHT22;1535;51.098;6.414;2023-03-24T07:18:33;10.10;99.90
3051;DHT22;1535;51.098;6.414;2023-03-24T07:21:01;10.20;99.90
3051;DHT22;1535;51.098;6.414;2023-03-24T07:23:28;10.30;99.90
3051;DHT22;1535;51.098;6.414;2023-03-24T07:25:55;10.30;99.90
3051;DHT22;1535;51.098;6.414;2023-03-24T07:28:22;10.30;99.90
3051;DHT22;1535;51.098;6.414;2023-03-24T07:30:49;10.30;99.90
3051;DHT22;1535;51.098;6.414;2023-03-24T07:33:15;10.40;99.90
3051;DHT22;1535;51.098;6.414;2023-03-24T07:35:43;10.40;99.90
3051;DHT22;1535;51.098;6.414;2023-03-24T07:38:11;10.50;99.90
3051;DHT22;1535;51.098;6.414;2023-03-24T07:40:37;10.60;99.90
3051;DHT22;1535;51.098;6.414;2023-03-24T07:43:04;10.60;99.90
3051;DHT22;1535;51.098;6.414;2023-03-24T07:45:31;10.70;99.90
3051;DHT22;1535;51.098;6.414;2023-03-24T07:47:58;10.80;99.90
3051;DHT22;1535;51.098;6.414;2023-03-24T07:50:27;10.90;99.90
3051;DHT22;1535;51.098;6.414;2023-03-24T07:52:56;11.00;99.90
3051;DHT22;1535;51.098;6.414;2023-03-24T07:55:23;10.90;99.90
3051;DHT22;1535;51.098;6.414;2023-03-24T07:57:51;11.00;99.90
3051;DHT22;1535;51.098;6.414;2023-03-24T08:00:18;11.10;99.90
3051;DHT22;1535;51.098;6.414;2023-03-24T08:02:48;11.30;99.90
3051;DHT22;1535;51.098;6.414;2023-03-24T08:05:17;11.50;99.90
3051;DHT22;1535;51.098;6.414;2023-03-24T08:07:45;11.50;99.90
3051;DHT22;1535;51.098;6.414;2023-03-24T08:10:17;11.60;99.90
3051;DHT22;1535;51.098;6.414;2023-03-24T08:12:45;11.60;99.90
3051;DHT22;1535;51.098;6.414;2023-03-24T08:15:12;11.40;99.90
3051;DHT22;1535;51.098;6.414;2023-03-24T08:17:40;11.40;99.90
3051;DHT22;1535;51.098;6.414;2023-03-24T08:20:09;11.40;99.90
3051;DHT22;1535;51.098;6.414;2023-03-24T08:22:39;11.20;99.90
3051;DHT22;1535;51.098;6.414;2023-03-24T08:25:07;11.30;99.90
3051;DHT22;1535;51.098;6.414;2023-03-24T08:27:36;11.30;99.90
3051;DHT22;1535;51.098;6.414;2023-03-24T08:30:03;11.30;99.90
3051;DHT22;1535;51.098;6.414;2023-03-24T08:32:31;11.40;99.90
3051;DHT22;1535;51.098;6.414;2023-03-24T08:34:58;11.60;99.90
3051;DHT22;1535;51.098;6.414;2023-03-24T08:37:25;11.60;99.90
3051;DHT22;1535;51.098;6.414;2023-03-24T08:39:52;11.80;99.90
3051;DHT22;1535;51.098;6.414;2023-03-24T08:42:23;11.80;99.90
3051;DHT22;1535;51.098;6.414;2023-03-24T08:44:52;11.70;99.90
3051;DHT22;1535;51.098;6.414;2023-03-24T08:47:19;11.90;99.90
3051;DHT22;1535;51.098;6.414;2023-03-24T08:49:45;12.10;99.90
3051;DHT22;1535;51.098;6.414;2023-03-24T08:52:12;12.00;99.90
3051;DHT22;1535;51.098;6.414;2023-03-24T08:54:39;12.00;99.90
3051;DHT22;1535;51.098;6.414;2023-03-24T08:57:06;12.10;99.90
3051;DHT22;1535;51.098;6.414;2023-03-24T08:59:33;12.30;99.90
3051;DHT22;1535;51.098;6.414;2023-03-24T09:02:02;12.40;99.90
3051;DHT22;1535;51.098;6.414;2023-03-24T09:04:29;12.40;99.90
3051;DHT22;1535;51.098;6.414;2023-03-24T09:06:56;12.20;99.90
3051;DHT22;1535;51.098;6.414;2023-03-24T09:09:24;12.20;99.90
3051;DHT22;1535;51.098;6.414;2023-03-24T09:11:51;12.20;99.90
3051;DHT22;1535;51.098;6.414;2023-03-24T09:14:18;12.30;99.90
3051;DHT22;1535;51.098;6.414;2023-03-24T09:16:46;12.50;99.90
3051;DHT22;1535;51.098;6.414;2023-03-24T09:19:17;12.60;99.90
3051;DHT22;1535;51.098;6.414;2023-03-24T09:21:45;12.50;99.90
3051;DHT22;1535;51.098;6.414;2023-03-24T09:24:12;12.60;99.90
3051;DHT22;1535;51.098;6.414;2023-03-24T09:26:40;12.90;99.90
3051;DHT22;1535;51.098;6.414;2023-03-24T09:29:07;13.00;99.90
3051;DHT22;1535;51.098;6.414;2023-03-24T09:31:35;13.10;99.90
3051;DHT22;1535;51.098;6.414;2023-03-24T09:34:03;13.00;99.90
3051;DHT22;1535;51.098;6.414;2023-03-24T09:36:31;13.00;99.90
3051;DHT22;1535;51.098;6.414;2023-03-24T09:38:58;12.70;99.90
3051;DHT22;1535;51.098;6.414;2023-03-24T09:41:27;12.90;99.90
3051;DHT22;1535;51.098;6.414;2023-03-24T09:43:58;13.20;99.90
3051;DHT22;1535;51.098;6.414;2023-03-24T09:46:29;13.60;99.90
3051;DHT22;1535;51.098;6.414;2023-03-24T09:48:56;13.90;99.90
3051;DHT22;1535;51.098;6.414;2023-03-24T09:51:25;13.70;99.90
3051;DHT22;1535;51.098;6.414;2023-03-24T09:53:58;13.60;99.90
3051;DHT22;1535;51.098;6.414;2023-03-24T09:56:26;13.60;99.90
3051;DHT22;1535;51.098;6.414;2023-03-24T09:59:02;13.90;99.90
3051;DHT22;1535;51.098;6.414;2023-03-24T10:01:29;13.90;99.90
3051;DHT22;1535;51.098;6.414;2023-03-24T10:03:58;13.90;99.90
3051;DHT22;1535;51.098;6.414;2023-03-24T10:06:27;14.00;99.90
3051;DHT22;1535;51.098;6.414;2023-03-24T10:09:07;13.80;99.90
3051;DHT22;1535;51.098;6.414;2023-03-24T10:11:43;13.60;99.90
3051;DHT22;1535;51.098;6.414;2023-03-24T10:14:21;13.80;99.90
3051;DHT22;1535;51.098;6.414;2023-03-24T10:16:59;14.00;99.90
3051;DHT22;1535;51.098;6.414;2023-03-24T10:19:37;14.30;99.90
3051;DHT22;1535;51.098;6.414;2023-03-24T10:22:12;14.30;99.90
3051;DHT22;1535;51.098;6.414;2023-03-24T10:24:44;14.40;99.90
3051;DHT22;1535;51.098;6.414;2023-03-24T10:27:20;14.60;99.90
3051;DHT22;1535;51.098;6.414;2023-03-24T10:30:02;14.70;99.90
3051;DHT22;1535;51.098;6.414;2023-03-24T10:32:33;15.00;99.90
3051;DHT22;1535;51.098;6.414;2023-03-24T10:35:01;15.00;99.90
3051;DHT22;1535;51.098;6.414;2023-03-24T10:37:34;15.40;99.90
3051;DHT22;1535;51.098;6.414;2023-03-24T10:40:11;16.00;99.90
3051;DHT22;1535;51.098;6.414;2023-03-24T10:42:39;15.90;99.90
3051;DHT22;1535;51.098;6.414;2023-03-24T10:45:11;15.50;99.90
3051;DHT22;1535;51.098;6.414;2023-03-24T10:47:39;15.60;99.90
3051;DHT22;1535;51.098;6.414;2023-03-24T10:50:08;15.20;99.90
3051;DHT22;1535;51.098;6.414;2023-03-24T10:52:39;15.10;99.90
3051;DHT22;1535;51.098;6.414;2023-03-24T10:55:13;15.20;99.90
3051;DHT22;1535;51.098;6.414;2023-03-24T10:57:42;16.00;99.90
3051;DHT22;1535;51.098;6.414;2023-03-24T11:00:16;16.40;99.90
3051;DHT22;1535;51.098;6.414;2023-03-24T11:02:53;16.30;99.90
3051;DHT22;1535;51.098;6.414;2023-03-24T11:05:26;15.90;99.90
3051;DHT22;1535;51.098;6.414;2023-03-24T11:07:59;16.00;99.90
3051;DHT22;1535;51.098;6.414;2023-03-24T11:10:39;16.30;99.90
3051;DHT22;1535;51.098;6.414;2023-03-24T11:13:16;16.50;99.90
3051;DHT22;1535;51.098;6.414;2023-03-24T11:15:52;16.30;99.90
3051;DHT22;1535;51.098;6.414;2023-03-24T11:18:20;16.30;99.90
3051;DHT22;1535;51.098;6.414;2023-03-24T11:20:52;16.40;99.90
3051;DHT22;1535;51.098;6.414;2023-03-24T11:23:26;16.40;99.90
3051;DHT22;1535;51.098;6.414;2023-03-24T11:26:06;16.40;99.90
3051;DHT22;1535;51.098;6.414;2023-03-24T11:28:36;16.80;99.90
3051;DHT22;1535;51.098;6.414;2023-03-24T11:31:06;17.00;99.90
3051;DHT22;1535;51.098;6.414;2023-03-24T11:33:35;17.40;99.90
3051;DHT22;1535;51.098;6.414;2023-03-24T11:36:38;16.60;99.90
3051;DHT22;1535;51.098;6.414;2023-03-24T11:39:12;16.00;99.90
3051;DHT22;1535;51.098;6.414;2023-03-24T11:41:43;16.30;99.90
3051;DHT22;1535;51.098;6.414;2023-03-24T11:44:19;15.60;99.90
3051;DHT22;1535;51.098;6.414;2023-03-24T11:46:48;15.30;99.90
3051;DHT22;1535;51.098;6.414;2023-03-24T11:49:19;15.20;99.90
3051;DHT22;1535;51.098;6.414;2023-03-24T11:51:50;15.10;99.90
3051;DHT22;1535;51.098;6.414;2023-03-24T11:54:20;15.00;99.90
3051;DHT22;1535;51.098;6.414;2023-03-24T11:56:50;15.00;99.90
3051;DHT22;1535;51.098;6.414;2023-03-24T11:59:26;15.40;99.90
3051;DHT22;1535;51.098;6.414;2023-03-24T12:02:08;15.60;99.90
3051;DHT22;1535;51.098;6.414;2023-03-24T12:04:45;15.10;99.90
3051;DHT22;1535;51.098;6.414;2023-03-24T12:07:41;14.90;99.90
3051;DHT22;1535;51.098;6.414;2023-03-24T12:10:20;14.80;99.90
3051;DHT22;1535;51.098;6.414;2023-03-24T12:12:58;15.70;99.90
3051;DHT22;1535;51.098;6.414;2023-03-24T12:15:36;16.30;99.90
3051;DHT22;1535;51.098;6.414;2023-03-24T12:18:19;16.60;99.90
3051;DHT22;1535;51.098;6.414;2023-03-24T12:20:54;16.50;99.90
3051;DHT22;1535;51.098;6.414;2023-03-24T12:23:33;16.00;99.90
3051;DHT22;1535;51.098;6.414;2023-03-24T12:26:16;16.00;99.90
3051;DHT22;1535;51.098;6.414;2023-03-24T12:28:56;16.00;99.90
3051;DHT22;1535;51.098;6.414;2023-03-24T12:31:39;16.60;99.90
3051;DHT22;1535;51.098;6.414;2023-03-24T12:34:34;16.30;99.90
3051;DHT22;1535;51.098;6.414;2023-03-24T12:37:08;16.20;99.90
3051;DHT22;1535;51.098;6.414;2023-03-24T12:39:47;15.80;99.90
3051;DHT22;1535;51.098;6.414;2023-03-24T12:42:16;15.60;99.90
3051;DHT22;1535;51.098;6.414;2023-03-24T12:44:58;15.60;99.90
3051;DHT22;1535;51.098;6.414;2023-03-24T12:50:41;16.00;99.90
3051;DHT22;1535;51.098;6.414;2023-03-24T12:53:18;15.80;99.90
3051;DHT22;1535;51.098;6.414;2023-03-24T12:55:50;15.90;99.90
3051;DHT22;1535;51.098;6.414;2023-03-24T12:58:22;16.10;99.90
3051;DHT22;1535;51.098;6.414;2023-03-24T13:00:59;15.90;99.90
3051;DHT22;1535;51.098;6.414;2023-03-24T13:03:31;16.00;99.90
3051;DHT22;1535;51.098;6.414;2023-03-24T13:06:06;16.20;99.90
3051;DHT22;1535;51.098;6.414;2023-03-24T13:08:37;16.80;99.90
3051;DHT22;1535;51.098;6.414;2023-03-24T13:11:08;16.90;99.90
3051;DHT22;1535;51.098;6.414;2023-03-24T13:13:39;16.90;99.90
3051;DHT22;1535;51.098;6.414;2023-03-24T13:16:14;16.90;99.90
3051;DHT22;1535;51.098;6.414;2023-03-24T13:18:44;17.20;99.90
3051;DHT22;1535;51.098;6.414;2023-03-24T13:21:14;17.50;99.90
3051;DHT22;1535;51.098;6.414;2023-03-24T13:23:49;18.00;99.90
3051;DHT22;1535;51.098;6.414;2023-03-24T13:26:25;17.90;99.90
3051;DHT22;1535;51.098;6.414;2023-03-24T13:29:03;16.90;99.90
3051;DHT22;1535;51.098;6.414;2023-03-24T13:31:37;16.50;99.90
3051;DHT22;1535;51.098;6.414;2023-03-24T13:34:11;16.40;99.90
3051;DHT22;1535;51.098;6.414;2023-03-24T13:36:43;15.90;99.90
3051;DHT22;1535;51.098;6.414;2023-03-24T13:39:15;15.30;99.90
3051;DHT22;1535;51.098;6.414;2023-03-24T13:41:47;13.90;99.90
3051;DHT22;1535;51.098;6.414;2023-03-24T13:44:18;13.00;99.90
3051;DHT22;1535;51.098;6.414;2023-03-24T13:47:03;13.20;99.90
3051;DHT22;1535;51.098;6.414;2023-03-24T13:49:31;13.50;99.90
3051;DHT22;1535;51.098;6.414;2023-03-24T13:52:02;13.90;99.90
3051;DHT22;1535;51.098;6.414;2023-03-24T13:54:32;14.40;99.90
3051;DHT22;1535;51.098;6.414;2023-03-24T13:57:03;14.70;99.90
3051;DHT22;1535;51.098;6.414;2023-03-24T13:59:32;15.20;99.90
3051;DHT22;1535;51.098;6.414;2023-03-24T14:02:17;15.50;99.90
3051;DHT22;1535;51.098;6.414;2023-03-24T14:04:46;15.90;99.90
3051;DHT22;1535;51.098;6.414;2023-03-24T14:07:44;15.40;99.90
3051;DHT22;1535;51.098;6.414;2023-03-24T14:10:38;14.60;99.90
3051;DHT22;1535;51.098;6.414;2023-03-24T14:13:34;14.50;99.90
3051;DHT22;1535;51.098;6.414;2023-03-24T14:19:26;14.50;99.90
3051;DHT22;1535;51.098;6.414;2023-03-24T14:22:08;14.60;99.90
3051;DHT22;1535;51.098;6.414;2023-03-24T14:24:36;14.20;99.90
3051;DHT22;1535;51.098;6.414;2023-03-24T14:27:25;13.60;99.90
3051;DHT22;1535;51.098;6.414;2023-03-24T14:29:59;13.40;99.90
3051;DHT22;1535;51.098;6.414;2023-03-24T14:32:26;13.70;99.90
3051;DHT22;1535;51.098;6.414;2023-03-24T14:34:56;14.10;99.90
3051;DHT22;1535;51.098;6.414;2023-03-24T14:37:26;14.50;99.90
3051;DHT22;1535;51.098;6.414;2023-03-24T14:39:55;15.10;99.90
3051;DHT22;1535;51.098;6.414;2023-03-24T14:48:37;16.50;99.90
3051;DHT22;1535;51.098;6.414;2023-03-24T14:54:05;17.10;99.90
3051;DHT22;1535;51.098;6.414;2023-03-24T14:56:37;17.10;99.90
3051;DHT22;1535;51.098;6.414;2023-03-24T14:59:09;16.70;99.90
3051;DHT22;1535;51.098;6.414;2023-03-24T15:01:40;16.20;99.90
3051;DHT22;1535;51.098;6.414;2023-03-24T15:04:10;16.00;99.90
3051;DHT22;1535;51.098;6.414;2023-03-24T15:06:43;15.60;99.90
3051;DHT22;1535;51.098;6.414;2023-03-24T15:09:12;15.40;99.90
3051;DHT22;1535;51.098;6.414;2023-03-24T15:11:40;15.20;99.90
3051;DHT22;1535;51.098;6.414;2023-03-24T15:14:14;14.90;99.90
3051;DHT22;1535;51.098;6.414;2023-03-24T15:16:50;14.30;99.90
3051;DHT22;1535;51.098;6.414;2023-03-24T15:19:20;13.60;99.90
3051;DHT22;1535;51.098;6.414;2023-03-24T15:21:50;13.30;99.90
3051;DHT22;1535;51.098;6.414;2023-03-24T15:24:28;13.00;99.90
3051;DHT22;1535;51.098;6.414;2023-03-24T15:27:18;12.40;99.90
3051;DHT22;1535;51.098;6.414;2023-03-24T15:29:53;11.60;99.90
3051;DHT22;1535;51.098;6.414;2023-03-24T15:32:23;10.70;99.90
3051;DHT22;1535;51.098;6.414;2023-03-24T15:34:53;10.30;99.90
3051;DHT22;1535;51.098;6.414;2023-03-24T15:37:23;10.10;99.90
3051;DHT22;1535;51.098;6.414;2023-03-24T15:39:53;10.00;99.90
3051;DHT22;1535;51.098;6.414;2023-03-24T15:42:21;10.00;99.90
3051;DHT22;1535;51.098;6.414;2023-03-24T15:44:48;10.00;99.90
3051;DHT22;1535;51.098;6.414;2023-03-24T15:47:19;10.10;99.90
3051;DHT22;1535;51.098;6.414;2023-03-24T15:49:50;10.10;99.90
3051;DHT22;1535;51.098;6.414;2023-03-24T15:52:29;10.00;99.90
3051;DHT22;1535;51.098;6.414;2023-03-24T15:55:00;10.00;99.90
3051;DHT22;1535;51.098;6.414;2023-03-24T15:57:35;10.00;99.90
3051;DHT22;1535;51.098;6.414;2023-03-24T16:00:10;9.90;99.90
3051;DHT22;1535;51.098;6.414;2023-03-24T16:02:44;9.90;99.90
3051;DHT22;1535;51.098;6.414;2023-03-24T16:05:15;9.90;99.90
3051;DHT22;1535;51.098;6.414;2023-03-24T16:07:53;9.90;99.90
3051;DHT22;1535;51.098;6.414;2023-03-24T16:10:27;9.70;99.90
3051;DHT22;1535;51.098;6.414;2023-03-24T16:12:58;9.60;99.90
3051;DHT22;1535;51.098;6.414;2023-03-24T16:15:29;9.50;99.90
3051;DHT22;1535;51.098;6.414;2023-03-24T16:17:56;9.40;99.90
3051;DHT22;1535;51.098;6.414;2023-03-24T16:20:23;9.40;99.90
3051;DHT22;1535;51.098;6.414;2023-03-24T16:22:52;9.40;99.90
3051;DHT22;1535;51.098;6.414;2023-03-24T16:25:21;9.50;99.90
3051;DHT22;1535;51.098;6.414;2023-03-24T16:27:48;9.60;99.90
3051;DHT22;1535;51.098;6.414;2023-03-24T16:30:18;10.10;99.90
3051;DHT22;1535;51.098;6.414;2023-03-24T16:32:46;10.70;99.90
3051;DHT22;1535;51.098;6.414;2023-03-24T16:35:12;11.30;99.90
3051;DHT22;1535;51.098;6.414;2023-03-24T16:37:39;12.00;99.90
3051;DHT22;1535;51.098;6.414;2023-03-24T16:40:19;12.30;99.90
3051;DHT22;1535;51.098;6.414;2023-03-24T16:42:46;12.80;99.90
3051;DHT22;1535;51.098;6.414;2023-03-24T16:45:13;12.80;99.90
3051;DHT22;1535;51.098;6.414;2023-03-24T16:47:41;13.10;99.90
3051;DHT22;1535;51.098;6.414;2023-03-24T16:50:23;13.20;99.90
3051;DHT22;1535;51.098;6.414;2023-03-24T16:52:51;13.30;99.90
3051;DHT22;1535;51.098;6.414;2023-03-24T16:55:20;13.40;99.90
3051;DHT22;1535;51.098;6.414;2023-03-24T16:57:46;13.30;99.90